Time;durP1;ratioP1;P1;durP2;ratioP2;P2;SDS_P1;SDS_P2;PMS_P1;PMS_P2;Temp;Humidity;BMP_temperature;BMP_pressure;BME280_temperature;BME280_humidity;BME280_pressure;Samples;Min_cycle;Max_cycle;Signal;HPM_P1;HPM_P2
2024/03/29 00:04:38;;;;;;;1999.90;999.90;;;;;;;7.71;78.29;99059.44;10495774;28;20056;-65
2024/03/29 00:09:40;;;;;;;1999.90;999.90;;;;;;;7.74;78.21;99046.19;10495866;28;20059;-65
2024/03/29 00:14:43;;;;;;;1999.90;999.90;;;;;;;7.87;76.63;99045.28;10495583;28;20053;-65
2024/03/29 00:19:45;;;;;;;1999.90;999.90;;;;;;;7.63;79.34;99060.03;10496859;28;20057;-65
2024/03/29 00:24:46;;;;;;;1999.90;999.90;;;;;;;7.86;77.08;99051.47;10486340;28;20094;-65
2024/03/29 00:29:52;;;;;;;1999.90;999.90;;;;;;;7.76;77.37;99046.09;10503551;28;20060;-65
2024/03/29 00:34:54;;;;;;;1999.90;999.90;;;;;;;7.72;77.91;99049.88;10503252;28;20056;-65
2024/03/29 00:39:55;;;;;;;1999.90;999.90;;;;;;;7.69;77.45;99058.72;10502277;28;20060;-65
2024/03/29 00:44:57;;;;;;;1999.90;999.90;;;;;;;7.57;78.42;99085.69;10502522;28;20049;-65
2024/03/29 00:49:58;;;;;;;1999.90;999.90;;;;;;;7.68;79.09;99082.28;10501814;28;20049;-65
2024/03/29 00:54:59;;;;;;;1999.90;999.90;;;;;;;7.80;78.18;99082.25;10502057;28;20501;-65
2024/03/29 01:00:01;;;;;;;1999.90;999.90;;;;;;;7.87;76.28;99068.72;10501259;28;20056;-65
2024/03/29 01:05:02;;;;;;;1999.90;999.90;;;;;;;7.76;77.34;99088.59;10500967;28;20087;-65
2024/03/29 01:10:04;;;;;;;1999.90;999.90;;;;;;;7.85;77.02;99094.94;10500987;28;20458;-65
2024/03/29 01:15:06;;;;;;;1999.90;999.90;;;;;;;7.56;78.36;99089.22;10501934;28;20048;-65
2024/03/29 01:20:08;;;;;;;1999.90;999.90;;;;;;;7.62;78.54;99084.41;10500612;28;20055;-65
2024/03/29 01:25:11;;;;;;;1999.90;999.90;;;;;;;7.61;78.38;99087.94;10500055;28;20505;-65
2024/03/29 01:30:14;;;;;;;1999.90;999.90;;;;;;;7.60;79.15;99081.09;10499687;28;20512;-65
2024/03/29 01:35:15;;;;;;;1999.90;999.90;;;;;;;7.50;79.35;99076.63;10499383;28;20044;-65
2024/03/29 01:40:17;;;;;;;1999.90;999.90;;;;;;;7.60;79.60;99070.66;10500025;28;20086;-65
2024/03/29 01:45:19;;;;;;;1999.90;999.90;;;;;;;7.32;80.26;99060.56;10500658;28;20056;-65
2024/03/29 01:50:21;;;;;;;1999.90;999.90;;;;;;;7.41;79.79;99049.47;10500583;28;20057;-65
2024/03/29 01:55:22;;;;;;;1999.90;999.90;;;;;;;7.41;79.70;99026.06;10483394;28;20165;-65
2024/03/29 02:00:24;;;;;;;1999.90;999.90;;;;;;;7.52;78.57;99007.88;10499216;28;20516;-65
2024/03/29 02:05:26;;;;;;;1999.90;999.90;;;;;;;7.46;79.31;99013.53;10482714;28;20106;-65
2024/03/29 02:10:27;;;;;;;1999.90;999.90;;;;;;;7.42;79.62;98999.91;10482501;28;20063;-65
2024/03/29 02:15:30;;;;;;;1999.90;999.90;;;;;;;7.34;81.01;99011.81;10498568;28;20052;-65
2024/03/29 02:20:32;;;;;;;1999.90;999.90;;;;;;;7.41;81.89;99023.44;10498677;28;20060;-65
2024/03/29 02:25:33;;;;;;;1999.90;999.90;;;;;;;7.65;78.97;99041.69;10482125;28;20056;-65
2024/03/29 02:30:35;;;;;;;1999.90;999.90;;;;;;;7.49;81.30;99064.56;10481775;28;20064;-65
2024/03/29 02:35:36;;;;;;;1999.90;999.90;;;;;;;7.51;81.39;99053.09;10481247;28;20040;-65
2024/03/29 02:40:38;;;;;;;1999.90;999.90;;;;;;;7.76;79.80;99065.16;10497489;28;20056;-65
2024/03/29 02:45:40;;;;;;;1999.90;999.90;;;;;;;7.63;82.05;99064.38;10497434;28;20044;-65
2024/03/29 02:50:41;;;;;;;1999.90;999.90;;;;;;;7.78;79.97;99065.03;10497742;28;20063;-65
2024/03/29 02:55:43;;;;;;;1999.90;999.90;;;;;;;7.73;80.01;99059.34;10497789;28;20098;-65
2024/03/29 03:00:44;;;;;;;1999.90;999.90;;;;;;;7.72;81.03;99078.53;10497489;28;20060;-65
2024/03/29 03:05:45;;;;;;;1999.90;999.90;;;;;;;7.81;81.42;99065.63;10497661;28;20056;-65
2024/03/29 03:10:56;;;;;;;1999.90;999.90;;;;;;;7.88;79.10;99068.63;10496870;28;20409;-65
2024/03/29 03:15:57;;;;;;;1999.90;999.90;;;;;;;7.81;80.91;99075.25;10496220;28;20078;-65
2024/03/29 03:20:59;;;;;;;1999.90;999.90;;;;;;;8.02;78.67;99069.38;10495345;28;20063;-65
2024/03/29 03:26:06;;;;;;;1999.90;999.90;;;;;;;8.06;80.85;99096.91;10495779;28;20050;-65
2024/03/29 03:31:09;;;;;;;1999.90;999.90;;;;;;;7.82;86.58;99095.16;10496518;28;20102;-65
2024/03/29 03:36:10;;;;;;;1999.90;999.90;;;;;;;7.79;89.94;99100.59;10495853;28;20053;-65
2024/03/29 03:41:12;;;;;;;1999.90;999.90;;;;;;;7.79;89.55;99095.38;10462336;28;20060;-65
2024/03/29 03:46:13;;;;;;;1999.90;999.90;;;;;;;7.61;94.51;99105.34;10495721;28;20063;-65
2024/03/29 03:51:16;;;;;;;1999.90;999.90;;;;;;;7.56;99.03;99104.84;10495586;28;20511;-64
2024/03/29 03:56:17;;;;;;;1999.90;999.90;;;;;;;7.45;100.00;99118.66;10499433;28;20045;-64
2024/03/29 04:01:18;;;;;;;1999.90;999.90;;;;;;;7.61;100.00;99127.00;10504204;28;20056;-64
2024/03/29 04:06:20;;;;;;;1999.90;999.90;;;;;;;7.62;100.00;99123.47;10503432;28;20049;-64
2024/03/29 04:11:21;;;;;;;1999.90;999.90;;;;;;;7.40;100.00;99131.97;10487063;28;20513;-64
2024/03/29 04:16:22;;;;;;;1999.90;999.90;;;;;;;7.55;100.00;99134.44;10503123;28;20481;-65
2024/03/29 04:21:24;;;;;;;1999.90;999.90;;;;;;;7.30;100.00;99130.97;10503565;28;20060;-65
2024/03/29 04:26:25;;;;;;;1999.90;999.90;;;;;;;7.34;100.00;99131.59;10486660;28;20053;-65
2024/03/29 04:31:27;;;;;;;1999.90;999.90;;;;;;;7.40;100.00;99116.34;10502464;28;20075;-64
2024/03/29 04:36:28;;;;;;;1999.90;999.90;;;;;;;7.44;100.00;99132.59;10502099;28;20477;-65
2024/03/29 04:41:34;;;;;;;1999.90;999.90;;;;;;;7.26;100.00;99116.50;10469067;28;20056;-65
2024/03/29 04:46:35;;;;;;;1999.90;999.90;;;;;;;7.15;100.00;99108.63;10501918;28;20490;-64
2024/03/29 04:56:44;;;;;;;1999.90;999.90;;;;;;;7.14;100.00;99128.59;10400924;28;20046;-64
2024/03/29 05:01:50;;;;;;;1999.90;999.90;;;;;;;7.21;100.00;99137.66;10402292;28;20060;-64
2024/03/29 05:07:00;;;;;;;1999.90;999.90;;;;;;;7.19;100.00;99131.69;10418857;28;20060;-65
2024/03/29 05:12:02;;;;;;;1999.90;999.90;;;;;;;7.10;100.00;99123.72;10402649;28;20095;-64
2024/03/29 05:17:03;;;;;;;1999.90;999.90;;;;;;;7.10;100.00;99137.56;10418041;28;20405;-65
2024/03/29 05:22:05;;;;;;;1999.90;999.90;;;;;;;7.06;100.00;99134.34;10401816;28;20049;-64
2024/03/29 05:27:06;;;;;;;1999.90;999.90;;;;;;;7.12;100.00;99129.66;10401873;28;20049;-64
2024/03/29 05:32:08;;;;;;;1999.90;999.90;;;;;;;7.14;100.00;99125.16;10401348;28;20045;-65
2024/03/29 05:37:09;;;;;;;1999.90;999.90;;;;;;;7.16;100.00;99144.09;10401019;28;20045;-64
2024/03/29 05:42:12;;;;;;;1999.90;999.90;;;;;;;7.07;100.00;99127.38;10400265;28;20505;-64
2024/03/29 05:47:13;;;;;;;1999.90;999.90;;;;;;;7.22;100.00;99123.69;10401255;28;20053;-65
2024/03/29 05:52:15;;;;;;;1999.90;999.90;;;;;;;7.16;100.00;99129.34;10400902;28;20061;-65
2024/03/29 05:57:16;;;;;;;1999.90;999.90;;;;;;;7.27;100.00;99132.97;10383965;28;20144;-64
2024/03/29 06:02:17;;;;;;;1999.90;999.90;;;;;;;7.18;100.00;99137.03;10384019;28;20056;-64
2024/03/29 06:07:19;;;;;;;1999.90;999.90;;;;;;;7.30;100.00;99135.34;10400945;28;20095;-65
2024/03/29 06:12:20;;;;;;;1999.90;999.90;;;;;;;7.44;100.00;99140.41;10399651;28;20100;-65
2024/03/29 06:17:25;;;;;;;1999.90;999.90;;;;;;;7.07;100.00;99171.59;10399395;28;20052;-64
2024/03/29 06:22:30;;;;;;;1999.90;999.90;;;;;;;7.29;100.00;99181.38;10382950;28;20418;-65
2024/03/29 06:27:35;;;;;;;1999.90;999.90;;;;;;;7.17;100.00;99172.63;10399017;28;20391;-64
2024/03/29 06:32:37;;;;;;;1999.90;999.90;;;;;;;7.05;100.00;99178.69;10398406;28;20045;-64
2024/03/29 06:37:39;;;;;;;1999.90;999.90;;;;;;;7.27;100.00;99164.19;10398794;28;20140;-64
2024/03/29 06:42:40;;;;;;;1999.90;999.90;;;;;;;7.47;100.00;99160.19;10398903;28;20064;-65
2024/03/29 06:47:41;;;;;;;1999.90;999.90;;;;;;;7.12;100.00;99151.28;10398383;28;20053;-64
2024/03/29 06:52:43;;;;;;;1999.90;999.90;;;;;;;7.30;100.00;99149.19;10398164;28;20072;-65
2024/03/29 06:57:44;;;;;;;1999.90;999.90;;;;;;;7.31;100.00;99158.66;10397962;28;20053;-65
2024/03/29 07:02:46;;;;;;;1999.90;999.90;;;;;;;7.44;100.00;99146.44;10397932;28;20061;-64
2024/03/29 07:07:47;;;;;;;1999.90;999.90;;;;;;;7.42;100.00;99126.66;10398737;28;20049;-65
2024/03/29 07:12:48;;;;;;;1999.90;999.90;;;;;;;7.47;100.00;99145.41;10397802;28;20387;-65
2024/03/29 07:17:50;;;;;;;1999.90;999.90;;;;;;;7.31;100.00;99152.63;10397492;28;20060;-65
2024/03/29 07:22:52;;;;;;;1999.90;999.90;;;;;;;7.46;100.00;99142.91;10397623;28;20060;-64
2024/03/29 07:27:53;;;;;;;1999.90;999.90;;;;;;;7.26;100.00;99155.53;10381271;28;20053;-65
2024/03/29 07:32:55;;;;;;;1999.90;999.90;;;;;;;7.47;100.00;99161.03;10380623;28;20490;-65
2024/03/29 07:37:57;;;;;;;1999.90;999.90;;;;;;;7.74;100.00;99166.03;10397041;28;20088;-65
2024/03/29 07:42:59;;;;;;;1999.90;999.90;;;;;;;7.80;100.00;99164.75;10397022;28;20510;-65
2024/03/29 07:48:01;;;;;;;1999.90;999.90;;;;;;;8.03;100.00;99177.91;10380259;28;20054;-65
2024/03/29 07:53:02;;;;;;;1999.90;999.90;;;;;;;8.34;100.00;99168.69;10396705;28;20119;-65
2024/03/29 07:58:05;;;;;;;1999.90;999.90;;;;;;;8.44;100.00;99174.91;10379889;28;20494;-65
2024/03/29 08:03:06;;;;;;;1999.90;999.90;;;;;;;8.41;100.00;99182.94;10379820;28;20057;-65
2024/03/29 08:08:07;;;;;;;1999.90;999.90;;;;;;;8.55;100.00;99179.31;10396746;28;20050;-65
2024/03/29 08:13:09;;;;;;;1999.90;999.90;;;;;;;8.72;100.00;99175.44;10396694;28;20046;-65
2024/03/29 08:18:11;;;;;;;1999.90;999.90;;;;;;;9.20;100.00;99162.19;10395971;28;20410;-65
2024/03/29 08:23:12;;;;;;;1999.90;999.90;;;;;;;9.34;100.00;99139.41;10395693;28;20456;-65
2024/03/29 08:28:14;;;;;;;1999.90;999.90;;;;;;;8.93;100.00;99168.59;10395565;28;20060;-65
2024/03/29 08:33:15;;;;;;;1999.90;999.90;;;;;;;9.39;100.00;99153.75;10396209;28;20061;-65
2024/03/29 08:38:17;;;;;;;1999.90;999.90;;;;;;;9.19;100.00;99146.66;10396113;28;20053;-65
2024/03/29 08:43:18;;;;;;;1999.90;999.90;;;;;;;9.88;100.00;99174.31;10400932;28;20057;-65
2024/03/29 08:48:20;;;;;;;1999.90;999.90;;;;;;;10.12;100.00;99174.09;10403580;28;20622;-65
2024/03/29 08:53:21;;;;;;;1999.90;999.90;;;;;;;9.74;100.00;99170.22;10402807;28;20072;-65
2024/03/29 08:58:23;;;;;;;1999.90;999.90;;;;;;;10.32;100.00;99157.66;10418754;28;20049;-65
2024/03/29 09:03:25;;;;;;;1999.90;999.90;;;;;;;9.71;100.00;99175.66;10402707;28;20061;-65
2024/03/29 09:08:26;;;;;;;1999.90;999.90;;;;;;;10.26;100.00;99201.78;10386621;28;20099;-65
2024/03/29 09:13:28;;;;;;;1999.90;999.90;;;;;;;9.91;100.00;99197.59;10385525;28;20406;-65
2024/03/29 09:18:29;;;;;;;1999.90;999.90;;;;;;;10.34;100.00;99181.91;10401549;28;20045;-65
2024/03/29 09:23:31;;;;;;;1999.90;999.90;;;;;;;11.04;100.00;99171.72;10402694;28;20061;-65
2024/03/29 09:28:34;;;;;;;1999.90;999.90;;;;;;;11.31;96.22;99171.16;10401907;28;20053;-65
2024/03/29 09:33:35;;;;;;;1999.90;999.90;;;;;;;11.63;93.02;99167.53;10385688;28;20053;-65
2024/03/29 09:38:36;;;;;;;1999.90;999.90;;;;;;;11.81;96.35;99179.97;10400577;28;20485;-65
2024/03/29 09:43:40;;;;;;;1999.90;999.90;;;;;;;12.52;93.66;99189.41;10400475;28;20057;-65
2024/03/29 09:48:43;;;;;;;1999.90;999.90;;;;;;;12.95;90.00;99186.28;10384288;28;20268;-66
2024/03/29 09:53:46;;;;;;;1999.90;999.90;;;;;;;14.69;84.96;99195.09;10399431;28;20088;-66
2024/03/29 09:58:48;;;;;;;1999.90;999.90;;;;;;;14.67;80.90;99197.06;10400115;28;20103;-66
2024/03/29 10:03:51;;;;;;;1999.90;999.90;;;;;;;13.22;82.17;99215.41;10400295;28;20053;-65
2024/03/29 10:08:57;;;;;;;1999.90;999.90;;;;;;;13.24;87.04;99214.28;10400498;28;20053;-65
2024/03/29 10:13:58;;;;;;;1999.90;999.90;;;;;;;14.46;79.02;99208.72;10399824;28;20057;-65
2024/03/29 10:18:59;;;;;;;1999.90;999.90;;;;;;;13.47;80.45;99206.88;10398958;28;20050;-65
2024/03/29 10:24:10;;;;;;;1999.90;999.90;;;;;;;13.29;82.62;99212.03;10398793;28;20053;-65
2024/03/29 10:29:11;;;;;;;1999.90;999.90;;;;;;;13.82;80.47;99193.94;10382350;28;20513;-66
2024/03/29 10:34:13;;;;;;;1999.90;999.90;;;;;;;15.25;79.13;99185.06;10399097;28;20057;-66
2024/03/29 10:39:15;;;;;;;1999.90;999.90;;;;;;;16.91;73.54;99193.09;10398471;28;20045;-66
2024/03/29 10:44:16;;;;;;;1999.90;999.90;;;;;;;14.91;72.85;99187.66;10397998;28;20100;-66
2024/03/29 10:49:18;;;;;;;1999.90;999.90;;;;;;;16.98;71.04;99193.25;10382536;28;20056;-66
2024/03/29 10:54:19;;;;;;;1999.90;999.90;;;;;;;18.61;64.89;99180.19;10381679;28;20053;-66
2024/03/29 10:59:48;;;;;;;1999.90;999.90;;;;;;;14.71;71.88;99192.31;10397388;28;20585;-66
2024/03/29 11:04:50;;;;;;;1999.90;999.90;;;;;;;16.48;69.29;99195.94;10381596;28;20054;-66
2024/03/29 11:09:56;;;;;;;1999.90;999.90;;;;;;;17.09;65.29;99228.09;10397585;28;20414;-66
2024/03/29 11:15:06;;;;;;;1999.90;999.90;;;;;;;17.85;64.62;99219.72;10380868;28;20068;-66
2024/03/29 11:20:08;;;;;;;1999.90;999.90;;;;;;;15.69;68.71;99232.41;10381127;28;20050;-66
2024/03/29 11:25:13;;;;;;;1999.90;999.90;;;;;;;16.63;68.10;99209.31;10381126;28;20049;-66
2024/03/29 11:30:18;;;;;;;1999.90;999.90;;;;;;;18.29;62.72;99184.75;10414142;28;20050;-66
2024/03/29 11:35:23;;;;;;;1999.90;999.90;;;;;;;18.23;61.80;99174.03;10396997;28;20057;-66
2024/03/29 11:40:30;;;;;;;1999.90;999.90;;;;;;;20.23;60.66;99195.34;10397050;28;20053;-67
2024/03/29 11:45:34;;;;;;;1999.90;999.90;;;;;;;16.87;66.04;99242.84;10397358;28;20075;-67
2024/03/29 11:50:36;;;;;;;1999.90;999.90;;;;;;;16.37;63.35;99225.31;10397082;28;20410;-67
2024/03/29 11:55:37;;;;;;;1999.90;999.90;;;;;;;17.40;62.54;99237.97;10380306;28;20058;-67
2024/03/29 12:00:41;;;;;;;1999.90;999.90;;;;;;;15.25;63.41;99237.81;10396714;28;20053;-67
2024/03/29 12:05:44;;;;;;;1999.90;999.90;;;;;;;15.88;65.93;99241.06;10396440;28;20517;-67
2024/03/29 12:10:45;;;;;;;1999.90;999.90;;;;;;;17.46;63.57;99245.19;10363591;28;20057;-67
2024/03/29 12:15:46;;;;;;;1999.90;999.90;;;;;;;18.87;58.33;99247.91;10397652;28;20049;-67
2024/03/29 12:20:49;;;;;;;1999.90;999.90;;;;;;;18.88;54.66;99242.41;10387893;28;20054;-67
2024/03/29 12:25:55;;;;;;;1999.90;999.90;;;;;;;18.31;56.55;99261.41;10404031;28;20053;-67
2024/03/29 12:30:56;;;;;;;1999.90;999.90;;;;;;;20.07;52.40;99246.06;10387648;28;20057;-67
2024/03/29 12:35:59;;;;;;;1999.90;999.90;;;;;;;18.87;54.70;99261.97;10403891;28;20053;-67
2024/03/29 12:41:01;;;;;;;1999.90;999.90;;;;;;;19.15;51.58;99252.59;10403516;28;20049;-67
2024/03/29 12:46:02;;;;;;;1999.90;999.90;;;;;;;20.31;53.06;99244.88;10402954;28;20054;-67
2024/03/29 12:51:04;;;;;;;1999.90;999.90;;;;;;;21.55;51.13;99235.63;10403237;28;20053;-67
2024/03/29 12:56:06;;;;;;;1999.90;999.90;;;;;;;21.29;50.32;99240.59;10418386;28;20057;-67
2024/03/29 13:01:07;;;;;;;1999.90;999.90;;;;;;;19.94;51.02;99244.06;10402402;28;20057;-67
2024/03/29 13:06:08;;;;;;;1999.90;999.90;;;;;;;18.67;52.62;99234.28;10402655;28;20053;-67
2024/03/29 13:11:10;;;;;;;1999.90;999.90;;;;;;;20.33;49.06;99232.25;10385441;28;20053;-67
2024/03/29 13:16:12;;;;;;;1999.90;999.90;;;;;;;21.08;49.15;99224.69;10402083;28;20053;-67
2024/03/29 13:21:13;;;;;;;1999.90;999.90;;;;;;;20.18;48.33;99242.94;10386383;28;20053;-67
2024/03/29 13:26:14;;;;;;;1999.90;999.90;;;;;;;18.74;52.19;99245.81;10401853;28;20050;-67
2024/03/29 13:31:16;;;;;;;1999.90;999.90;;;;;;;17.16;52.80;99275.84;10401954;28;20053;-67
2024/03/29 13:36:17;;;;;;;1999.90;999.90;;;;;;;19.73;53.92;99272.19;10401880;28;20052;-67
2024/03/29 13:41:20;;;;;;;1999.90;999.90;;;;;;;19.16;54.52;99257.72;10384835;28;20049;-67
2024/03/29 13:46:21;;;;;;;1999.90;999.90;;;;;;;19.32;53.91;99259.41;10401299;28;20057;-67
2024/03/29 13:51:23;;;;;;;1999.90;999.90;;;;;;;19.27;53.93;99262.59;10417390;28;20053;-67
2024/03/29 13:56:24;;;;;;;1999.90;999.90;;;;;;;18.00;50.55;99268.34;10400017;28;20406;-67
2024/03/29 14:01:25;;;;;;;1999.90;999.90;;;;;;;17.30;53.43;99287.59;10400694;28;20061;-66
2024/03/29 14:06:27;;;;;;;1999.90;999.90;;;;;;;18.74;51.66;99282.94;10400543;28;20087;-67
2024/03/29 14:11:28;;;;;;;1999.90;999.90;;;;;;;19.38;51.83;99287.03;10400210;28;20072;-67
2024/03/29 14:16:30;;;;;;;1999.90;999.90;;;;;;;20.25;51.70;99256.28;10400303;28;20049;-67
2024/03/29 14:21:31;;;;;;;1999.90;999.90;;;;;;;17.57;53.29;99293.47;10400045;28;20072;-66
2024/03/29 14:26:33;;;;;;;1999.90;999.90;;;;;;;17.89;53.11;99289.09;10399537;28;20053;-66
2024/03/29 14:31:34;;;;;;;1999.90;999.90;;;;;;;19.34;52.24;99262.69;10399879;28;20054;-67
2024/03/29 14:36:35;;;;;;;1999.90;999.90;;;;;;;18.89;51.58;99267.09;10398868;28;20119;-67
2024/03/29 14:41:39;;;;;;;1999.90;999.90;;;;;;;19.01;52.63;99262.19;10398468;28;20053;-67
2024/03/29 14:46:40;;;;;;;1999.90;999.90;;;;;;;18.90;53.19;99272.22;10398738;28;20053;-66
2024/03/29 14:51:42;;;;;;;1999.90;999.90;;;;;;;18.60;53.36;99276.59;10398566;28;20064;-67
2024/03/29 14:56:45;;;;;;;1999.90;999.90;;;;;;;17.79;54.57;99281.31;10381678;28;20049;-67
2024/03/29 15:01:47;;;;;;;1999.90;999.90;;;;;;;17.47;56.29;99298.97;10398522;28;20060;-67
2024/03/29 15:06:49;;;;;;;1999.90;999.90;;;;;;;18.72;55.03;99298.19;10398455;28;20049;-66
2024/03/29 15:11:50;;;;;;;1999.90;999.90;;;;;;;20.32;51.72;99281.91;10397445;28;20491;-67
2024/03/29 15:16:52;;;;;;;1999.90;999.90;;;;;;;20.09;51.65;99281.22;10397621;28;20056;-67
2024/03/29 15:21:55;;;;;;;1999.90;999.90;;;;;;;22.31;48.55;99262.19;10398341;28;20049;-67
2024/03/29 15:26:58;;;;;;;1999.90;999.90;;;;;;;21.24;48.97;99258.97;10397693;28;20053;-67
2024/03/29 15:31:59;;;;;;;1999.90;999.90;;;;;;;20.14;50.75;99285.00;10397557;28;20057;-67
2024/03/29 15:37:00;;;;;;;1999.90;999.90;;;;;;;19.23;51.69;99281.69;10397038;28;20046;-67
2024/03/29 15:42:02;;;;;;;1999.90;999.90;;;;;;;19.47;54.93;99280.63;10381014;28;20057;-67
2024/03/29 15:47:03;;;;;;;1999.90;999.90;;;;;;;18.55;56.57;99287.72;10396523;28;20064;-67
2024/03/29 15:52:07;;;;;;;1999.90;999.90;;;;;;;18.07;54.56;99294.97;10401167;28;20060;-66
2024/03/29 15:57:08;;;;;;;1999.90;999.90;;;;;;;19.75;51.53;99288.78;10421648;28;20057;-66
2024/03/29 16:02:10;;;;;;;1999.90;999.90;;;;;;;18.76;54.93;99302.13;10405138;28;20050;-66
2024/03/29 16:07:11;;;;;;;1999.90;999.90;;;;;;;18.34;55.04;99312.19;10405215;28;20107;-66
2024/03/29 16:12:13;;;;;;;1999.90;999.90;;;;;;;17.15;57.15;99335.03;10404997;28;20057;-66
2024/03/29 16:17:15;;;;;;;1999.90;999.90;;;;;;;17.09;55.28;99327.75;10404078;28;20589;-66
2024/03/29 16:22:16;;;;;;;1999.90;999.90;;;;;;;17.22;54.84;99340.50;10404355;28;20490;-66
2024/03/29 16:27:17;;;;;;;1999.90;999.90;;;;;;;17.31;59.56;99333.38;10403773;28;20053;-66
2024/03/29 16:32:19;;;;;;;1999.90;999.90;;;;;;;16.42;57.98;99344.50;10404180;28;20115;-66
2024/03/29 16:37:20;;;;;;;1999.90;999.90;;;;;;;18.86;51.99;99339.03;10387338;28;20045;-66
2024/03/29 16:42:21;;;;;;;1999.90;999.90;;;;;;;16.76;55.93;99350.69;10403428;28;20061;-66
2024/03/29 16:47:23;;;;;;;1999.90;999.90;;;;;;;16.37;58.98;99354.72;10404028;28;20053;-66
2024/03/29 16:52:26;;;;;;;1999.90;999.90;;;;;;;15.81;61.68;99349.06;10402811;28;20057;-66
2024/03/29 16:57:28;;;;;;;1999.90;999.90;;;;;;;15.84;59.35;99338.19;10387518;28;20088;-66
2024/03/29 17:02:29;;;;;;;1999.90;999.90;;;;;;;15.71;59.85;99343.03;10402245;28;20057;-66
2024/03/29 17:07:31;;;;;;;1999.90;999.90;;;;;;;15.23;61.95;99350.47;10424228;22;20061;-66
2024/03/29 17:12:32;;;;;;;1999.90;999.90;;;;;;;14.98;63.98;99350.28;10501774;28;20060;-66
2024/03/29 17:17:33;;;;;;;1999.90;999.90;;;;;;;14.73;63.41;99353.69;10484954;28;20040;-66
2024/03/29 17:22:35;;;;;;;1999.90;999.90;;;;;;;14.41;65.96;99349.72;10502115;28;20056;-66
2024/03/29 17:27:37;;;;;;;1999.90;999.90;;;;;;;14.10;68.22;99357.91;10501251;28;20049;-66
2024/03/29 17:32:39;;;;;;;1999.90;999.90;;;;;;;14.00;68.95;99346.59;10483910;28;20430;-66
2024/03/29 17:37:40;;;;;;;1999.90;999.90;;;;;;;13.72;71.02;99360.56;10500186;28;20102;-66
2024/03/29 17:42:41;;;;;;;1999.90;999.90;;;;;;;13.51;71.82;99355.47;10500591;28;20048;-66
2024/03/29 17:47:43;;;;;;;1999.90;999.90;;;;;;;13.43;71.02;99365.91;10483995;28;20048;-66
2024/03/29 17:52:44;;;;;;;1999.90;999.90;;;;;;;13.49;70.12;99372.38;10484013;28;20065;-66
2024/03/29 17:57:46;;;;;;;1999.90;999.90;;;;;;;13.11;73.25;99371.41;10483490;28;20045;-66
2024/03/29 18:02:47;;;;;;;1999.90;999.90;;;;;;;13.14;74.81;99385.09;10482993;28;20049;-66
2024/03/29 18:07:48;;;;;;;1999.90;999.90;;;;;;;12.82;75.05;99396.69;10499287;28;20417;-66
2024/03/29 18:12:50;;;;;;;1999.90;999.90;;;;;;;12.54;76.13;99410.63;10498520;28;20720;-66
2024/03/29 18:17:52;;;;;;;1999.90;999.90;;;;;;;12.44;78.69;99418.50;10498440;28;20390;-66
2024/03/29 18:22:54;;;;;;;1999.90;999.90;;;;;;;12.39;81.19;99421.50;10499070;28;20063;-66
2024/03/29 18:27:55;;;;;;;1999.90;999.90;;;;;;;12.35;82.16;99421.91;10497941;28;20048;-66
2024/03/29 18:32:56;;;;;;;1999.90;999.90;;;;;;;12.00;84.71;99416.13;10498361;28;20052;-66
2024/03/29 18:37:58;;;;;;;1999.90;999.90;;;;;;;12.18;82.60;99424.19;10497710;28;20056;-66
2024/03/29 18:42:59;;;;;;;1999.90;999.90;;;;;;;12.10;83.54;99439.75;10481415;28;20053;-66
2024/03/29 18:48:01;;;;;;;1999.90;999.90;;;;;;;12.22;82.27;99449.22;10497736;28;20044;-66
2024/03/29 18:53:03;;;;;;;1999.90;999.90;;;;;;;12.03;83.74;99449.94;10481011;28;20060;-66
2024/03/29 18:58:05;;;;;;;1999.90;999.90;;;;;;;11.95;86.52;99451.53;10480468;28;20412;-66
2024/03/29 19:03:07;;;;;;;1999.90;999.90;;;;;;;11.93;86.89;99462.16;10479920;28;20489;-66
2024/03/29 19:08:08;;;;;;;1999.90;999.90;;;;;;;11.90;87.24;99462.38;10496859;28;20057;-66
2024/03/29 19:13:09;;;;;;;1999.90;999.90;;;;;;;11.73;88.90;99466.41;10480520;28;20052;-66
2024/03/29 19:18:16;;;;;;;1999.90;999.90;;;;;;;11.76;87.63;99460.91;10479917;28;20550;-66
2024/03/29 19:23:18;;;;;;;1999.90;999.90;;;;;;;12.04;86.54;99450.78;10497381;28;20059;-66
2024/03/29 19:28:19;;;;;;;1999.90;999.90;;;;;;;11.76;89.56;99449.63;10478955;28;20049;-66
2024/03/29 19:33:21;;;;;;;1999.90;999.90;;;;;;;11.61;91.14;99449.09;10495989;28;20098;-66
2024/03/29 19:38:23;;;;;;;1999.90;999.90;;;;;;;11.65;92.03;99453.97;10495985;28;20045;-66
2024/03/29 19:43:25;;;;;;;1999.90;999.90;;;;;;;11.60;92.46;99464.00;10479929;28;20052;-65
2024/03/29 19:48:26;;;;;;;1999.90;999.90;;;;;;;11.53;93.84;99460.22;10495509;28;20456;-66
2024/03/29 19:53:28;;;;;;;1999.90;999.90;;;;;;;11.75;89.97;99487.28;10478782;28;20512;-66
2024/03/29 19:58:30;;;;;;;1999.90;999.90;;;;;;;11.52;94.55;99508.38;10495672;28;20405;-66
2024/03/29 20:03:32;;;;;;;1999.90;999.90;;;;;;;11.73;98.51;99520.66;10495428;28;20153;-66
2024/03/29 20:08:33;;;;;;;1999.90;999.90;;;;;;;11.49;100.00;99526.97;10461825;28;20532;-66
2024/03/29 20:13:35;;;;;;;1999.90;999.90;;;;;;;11.43;100.00;99536.16;10495918;28;20048;-66
2024/03/29 20:18:37;;;;;;;1999.90;999.90;;;;;;;11.34;100.00;99526.41;10495305;28;20072;-66
2024/03/29 20:23:38;;;;;;;1999.90;999.90;;;;;;;11.45;100.00;99528.19;10495581;28;20052;-66
2024/03/29 20:28:40;;;;;;;1999.90;999.90;;;;;;;11.46;100.00;99525.41;10495566;28;20056;-66
2024/03/29 20:33:42;;;;;;;1999.90;999.90;;;;;;;11.31;100.00;99524.88;10495385;28;20102;-66
2024/03/29 20:38:43;;;;;;;1999.90;999.90;;;;;;;11.09;100.00;99528.38;10498910;28;20048;-66
2024/03/29 20:43:45;;;;;;;1999.90;999.90;;;;;;;11.18;100.00;99523.34;10502832;28;20121;-66
2024/03/29 20:48:47;;;;;;;1999.90;999.90;;;;;;;11.06;100.00;99531.25;10501868;28;20485;-66
2024/03/29 20:53:49;;;;;;;1999.90;999.90;;;;;;;10.96;100.00;99535.53;10502351;28;20053;-66
2024/03/29 20:58:50;;;;;;;1999.90;999.90;;;;;;;11.07;100.00;99548.63;10501848;28;20070;-66
2024/03/29 21:09:11;;;;;;;1999.90;999.90;;;;;;;11.04;100.00;99559.34;10501590;28;20056;-66
2024/03/29 21:14:13;;;;;;;1999.90;999.90;;;;;;;11.03;100.00;99575.16;10501150;28;20064;-66
2024/03/29 21:19:14;;;;;;;1999.90;999.90;;;;;;;11.00;100.00;99588.53;10484529;28;20044;-66
2024/03/29 21:24:16;;;;;;;1999.90;999.90;;;;;;;11.02;100.00;99587.44;10500666;28;20060;-66
2024/03/29 21:29:17;;;;;;;1999.90;999.90;;;;;;;11.01;100.00;99605.88;10500493;28;20478;-66
2024/03/29 21:34:20;;;;;;;1999.90;999.90;;;;;;;11.21;100.00;99606.94;10500685;28;20052;-66
2024/03/29 21:39:22;;;;;;;1999.90;999.90;;;;;;;11.09;100.00;99608.75;10499724;28;20105;-66
2024/03/29 21:44:25;;;;;;;1999.90;999.90;;;;;;;11.32;100.00;99606.94;10483545;28;20515;-66
2024/03/29 21:49:26;;;;;;;1999.90;999.90;;;;;;;11.00;100.00;99618.16;10499378;28;20417;-65
2024/03/29 21:54:28;;;;;;;1999.90;999.90;;;;;;;11.27;100.00;99609.09;10499454;28;20451;-65
2024/03/29 21:59:29;;;;;;;1999.90;999.90;;;;;;;11.31;100.00;99619.22;10499362;28;20056;-66
2024/03/29 22:04:32;;;;;;;1999.90;999.90;;;;;;;11.10;100.00;99636.63;10499146;28;20536;-66
2024/03/29 22:09:34;;;;;;;1999.90;999.90;;;;;;;11.00;100.00;99631.25;10482702;28;20053;-66
2024/03/29 22:14:35;;;;;;;1999.90;999.90;;;;;;;11.11;100.00;99626.03;10499370;28;20059;-66
2024/03/29 22:19:36;;;;;;;1999.90;999.90;;;;;;;10.98;100.00;99643.63;10498586;28;20486;-65